Time;durP1;ratioP1;P1;durP2;ratioP2;P2;SDS_P1;SDS_P2;PMS_P1;PMS_P2;Temp;Humidity;BMP_temperature;BMP_pressure;BME280_temperature;BME280_humidity;BME280_pressure;Samples;Min_cycle;Max_cycle;Signal;HPM_P1;HPM_P2
2023/04/28 00:02:09;;;;;;;35.00;25.80;;;;;;;6.44;75.83;100062.84;5052578;28;20051;-77
2023/04/28 00:04:35;;;;;;;32.45;21.98;;;;;;;6.35;75.65;100061.31;5052487;28;20496;-77
2023/04/28 00:07:00;;;;;;;31.33;19.85;;;;;;;6.31;75.51;100067.47;5052564;28;20033;-77
2023/04/28 00:09:25;;;;;;;29.73;20.80;;;;;;;6.07;75.65;100027.50;5052173;28;20021;-77
2023/04/28 00:11:51;;;;;;;32.42;22.42;;;;;;;6.09;76.03;100041.22;5052388;28;20033;-77
2023/04/28 00:14:16;;;;;;;34.70;22.83;;;;;;;6.17;75.92;100056.56;5052080;28;20067;-77
2023/04/28 00:16:41;;;;;;;32.85;21.38;;;;;;;6.16;76.19;100058.31;5052132;28;20103;-77
2023/04/28 00:19:07;;;;;;;31.60;20.70;;;;;;;6.08;76.49;100055.03;5052140;28;20017;-77
2023/04/28 00:21:33;;;;;;;34.90;21.80;;;;;;;6.01;76.29;100037.97;5052323;28;20040;-77
2023/04/28 00:23:58;;;;;;;36.47;22.55;;;;;;;6.00;76.74;100037.09;5052235;28;20028;-77
2023/04/28 00:26:23;;;;;;;29.65;22.52;;;;;;;6.03;76.68;100037.94;5051865;28;20075;-77
2023/04/28 00:28:49;;;;;;;32.38;21.13;;;;;;;6.04;76.83;100037.06;5052103;28;20381;-77
2023/04/28 00:31:15;;;;;;;30.20;20.08;;;;;;;6.09;76.98;100051.56;5051609;28;20385;-77
2023/04/28 00:33:41;;;;;;;28.73;20.70;;;;;;;6.00;77.33;100039.69;5052087;28;20020;-77
2023/04/28 00:36:08;;;;;;;33.97;20.20;;;;;;;6.05;76.63;100039.59;5051776;28;20104;-77
2023/04/28 00:38:33;;;;;;;47.05;26.90;;;;;;;6.14;76.58;100038.53;5052014;28;20055;-77
2023/04/28 00:40:59;;;;;;;47.67;29.77;;;;;;;6.27;76.33;100046.88;5051818;28;20103;-77
2023/04/28 00:43:24;;;;;;;62.25;38.28;;;;;;;6.36;76.08;100052.72;5051553;28;20465;-77
2023/04/28 00:45:50;;;;;;;54.38;33.17;;;;;;;6.27;77.01;100026.19;5051636;28;20056;-77
2023/04/28 00:48:16;;;;;;;57.35;33.92;;;;;;;6.43;76.06;100049.06;5051738;28;20033;-77
2023/04/28 00:50:43;;;;;;;52.33;30.63;;;;;;;6.41;75.75;100031.91;5051725;28;20489;-77
2023/04/28 00:53:12;;;;;;;55.97;33.78;;;;;;;6.43;76.29;100038.72;5051665;28;20052;-77
2023/04/28 00:55:38;;;;;;;40.72;26.20;;;;;;;6.14;76.22;99991.97;5051526;28;20087;-77
2023/04/28 00:58:07;;;;;;;46.90;27.67;;;;;;;6.29;76.53;100004.56;5051486;28;20053;-77
2023/04/28 01:00:33;;;;;;;38.08;24.48;;;;;;;6.38;76.42;100021.63;5051800;28;20029;-77
2023/04/28 01:02:59;;;;;;;43.08;27.92;;;;;;;6.31;76.99;100018.31;5051518;28;20358;-77
2023/04/28 01:05:25;;;;;;;42.05;26.85;;;;;;;6.34;76.54;100017.41;5051480;28;20043;-77
2023/04/28 01:07:50;;;;;;;43.30;26.92;;;;;;;6.45;76.71;100028.34;5051631;28;20535;-77
2023/04/28 01:10:15;;;;;;;37.42;25.27;;;;;;;6.29;75.90;100008.91;5054400;28;20032;-77
2023/04/28 01:12:41;;;;;;;38.67;26.80;;;;;;;6.32;76.62;100001.91;5055695;28;20028;-77
2023/04/28 01:15:11;;;;;;;42.17;28.35;;;;;;;6.34;76.57;99996.69;5055733;28;20029;-77
2023/04/28 01:17:36;;;;;;;35.60;24.27;;;;;;;6.49;76.06;100019.63;5055836;28;20081;-77
2023/04/28 01:20:03;;;;;;;36.30;24.92;;;;;;;6.34;76.05;99991.53;5055671;28;20128;-77
2023/04/28 01:22:28;;;;;;;39.72;24.08;;;;;;;6.33;75.88;99997.59;5055293;28;20060;-77
2023/04/28 01:24:54;;;;;;;34.08;22.52;;;;;;;6.44;75.72;100004.19;5055478;28;20083;-77
2023/04/28 01:27:19;;;;;;;33.83;22.40;;;;;;;6.39;76.12;100010.38;5055250;28;20052;-77
2023/04/28 01:29:45;;;;;;;33.75;21.60;;;;;;;6.38;75.47;99998.34;5055776;28;20090;-77
2023/04/28 01:32:10;;;;;;;36.45;23.63;;;;;;;6.43;75.82;99996.47;5055195;28;20029;-77
2023/04/28 01:34:35;;;;;;;36.25;21.33;;;;;;;6.41;75.64;99995.69;5055419;28;20025;-77
2023/04/28 01:37:01;;;;;;;36.22;23.50;;;;;;;6.49;75.66;100014.47;5055392;28;20392;-77
2023/04/28 01:39:26;;;;;;;31.23;22.23;;;;;;;6.55;75.69;100010.84;5054919;28;20487;-77
2023/04/28 01:41:51;;;;;;;33.03;23.15;;;;;;;6.52;75.07;100009.19;5055061;28;20025;-77
2023/04/28 01:44:17;;;;;;;34.67;22.45;;;;;;;6.48;74.96;99992.88;5054789;28;20025;-77
2023/04/28 01:46:42;;;;;;;34.00;22.83;;;;;;;6.50;75.00;99991.13;5054940;28;20036;-77
2023/04/28 01:49:07;;;;;;;29.08;21.10;;;;;;;6.54;74.80;99996.22;5055006;28;20035;-77
2023/04/28 01:51:33;;;;;;;29.95;19.80;;;;;;;6.41;74.94;99972.38;5054848;28;20488;-77
2023/04/28 01:53:58;;;;;;;29.88;19.20;;;;;;;6.59;75.14;99991.78;5054963;28;20029;-77
2023/04/28 01:56:23;;;;;;;32.33;19.70;;;;;;;6.52;74.64;99974.69;5054614;28;20025;-77
2023/04/28 01:58:49;;;;;;;30.27;19.98;;;;;;;6.67;75.12;99993.28;5054667;28;20018;-77
2023/04/28 02:01:14;;;;;;;27.85;20.05;;;;;;;6.71;74.89;100000.09;5054594;28;20021;-77
2023/04/28 02:03:40;;;;;;;30.08;18.60;;;;;;;6.73;74.00;99998.28;5054892;28;20029;-77
2023/04/28 02:06:05;;;;;;;29.90;19.83;;;;;;;6.72;75.09;99999.19;5054758;28;20088;-77
2023/04/28 02:08:30;;;;;;;25.80;19.15;;;;;;;6.63;74.61;99978.72;5054482;28;20376;-77
2023/04/28 02:10:56;;;;;;;23.48;17.88;;;;;;;6.76;74.11;99999.97;5054481;28;20516;-77
2023/04/28 02:13:22;;;;;;;28.45;18.58;;;;;;;6.78;74.13;100005.09;5054302;28;20064;-77
2023/04/28 02:15:47;;;;;;;27.35;18.38;;;;;;;6.69;73.79;99982.88;5054569;28;20521;-77
2023/04/28 02:18:13;;;;;;;27.50;19.83;;;;;;;6.77;74.21;99999.06;5054421;28;20023;-77
2023/04/28 02:20:38;;;;;;;26.23;18.98;;;;;;;6.72;74.04;99988.00;5054741;28;20061;-77
2023/04/28 02:23:03;;;;;;;21.58;14.95;;;;;;;6.67;73.84;99972.59;5054506;28;20414;-77
2023/04/28 02:25:29;;;;;;;22.90;16.02;;;;;;;6.67;73.65;99974.31;5054203;28;20469;-77
2023/04/28 02:27:54;;;;;;;38.50;24.10;;;;;;;6.69;74.07;99977.72;5054698;28;20041;-77
2023/04/28 02:30:20;;;;;;;32.33;21.45;;;;;;;6.78;73.88;99982.66;5054215;28;20416;-77
2023/04/28 02:32:45;;;;;;;28.05;16.30;;;;;;;6.74;74.74;99983.59;5054346;28;20216;-77
2023/04/28 02:35:10;;;;;;;27.77;16.98;;;;;;;6.67;73.66;99984.69;5054184;28;20025;-77
2023/04/28 02:37:36;;;;;;;21.95;15.23;;;;;;;6.62;73.56;99971.00;5053881;28;20086;-77
2023/04/28 02:40:01;;;;;;;23.30;13.93;;;;;;;6.57;73.79;99965.06;5054236;28;20104;-77
2023/04/28 02:42:26;;;;;;;25.80;17.90;;;;;;;6.68;73.56;99968.25;5053688;28;20598;-77
2023/04/28 02:44:52;;;;;;;20.42;15.02;;;;;;;6.57;73.35;99971.09;5053877;28;20037;-77
2023/04/28 02:47:18;;;;;;;19.52;14.80;;;;;;;6.55;73.45;99977.22;5053900;28;20028;-77
2023/04/28 02:49:43;;;;;;;25.00;13.73;;;;;;;6.47;73.49;99962.72;5053650;28;20096;-77
2023/04/28 02:52:08;;;;;;;19.98;12.90;;;;;;;6.42;73.80;99963.72;5053927;28;20590;-77
2023/04/28 02:54:35;;;;;;;19.02;13.15;;;;;;;6.56;73.73;99972.00;5053929;28;20461;-77
2023/04/28 02:57:02;;;;;;;20.80;14.00;;;;;;;6.47;73.85;99964.47;5053651;28;20032;-77
2023/04/28 02:59:28;;;;;;;19.35;13.25;;;;;;;6.60;73.31;99976.22;5053475;28;20477;-77
2023/04/28 03:01:53;;;;;;;17.20;12.13;;;;;;;6.62;73.09;99976.19;5053828;28;20033;-77
2023/04/28 03:04:18;;;;;;;21.58;13.68;;;;;;;6.58;73.09;99974.56;5053385;28;20051;-77
2023/04/28 03:06:44;;;;;;;16.50;13.05;;;;;;;6.35;73.24;99946.66;5053677;28;20035;-77
2023/04/28 03:09:09;;;;;;;20.83;12.52;;;;;;;6.40;73.86;99949.97;5053601;28;20151;-77
2023/04/28 03:11:35;;;;;;;20.80;13.82;;;;;;;6.42;73.70;99948.22;5053119;28;20461;-77
2023/04/28 03:14:00;;;;;;;19.90;14.15;;;;;;;6.59;73.95;99974.50;5053614;28;20043;-77
2023/04/28 03:16:26;;;;;;;17.38;13.57;;;;;;;6.63;73.52;99973.53;5053276;28;20060;-77
2023/04/28 03:18:51;;;;;;;20.20;13.90;;;;;;;6.58;73.58;99966.81;5053467;28;20527;-77
2023/04/28 03:21:17;;;;;;;28.05;14.07;;;;;;;6.45;74.04;99940.38;5053048;28;20496;-77
2023/04/28 03:23:42;;;;;;;20.40;14.00;;;;;;;6.47;73.96;99960.13;5053305;28;20031;-77
2023/04/28 03:26:07;;;;;;;19.00;13.32;;;;;;;6.50;74.14;99961.81;5053008;28;20028;-77
2023/04/28 03:28:33;;;;;;;20.65;14.27;;;;;;;6.40;74.47;99965.50;5053315;28;20025;-77
2023/04/28 03:30:58;;;;;;;22.92;15.13;;;;;;;6.37;74.33;99950.91;5053250;28;20029;-77
2023/04/28 03:33:24;;;;;;;23.65;16.00;;;;;;;6.27;74.21;99927.88;5052301;28;20103;-77
2023/04/28 03:35:49;;;;;;;23.50;15.32;;;;;;;6.37;74.57;99945.75;5053089;28;20044;-77
2023/04/28 03:38:15;;;;;;;30.60;15.60;;;;;;;6.23;74.69;99938.28;5053059;28;20056;-77
2023/04/28 03:40:40;;;;;;;24.23;14.60;;;;;;;6.35;74.70;99962.19;5052572;28;20373;-77
2023/04/28 03:43:06;;;;;;;24.02;15.25;;;;;;;6.41;75.31;99972.38;5053186;28;20077;-77
2023/04/28 03:45:31;;;;;;;28.25;16.35;;;;;;;6.28;74.74;99950.25;5051637;28;20396;-77
2023/04/28 03:47:56;;;;;;;23.40;16.73;;;;;;;6.39;75.11;99969.81;5053119;28;20025;-77
2023/04/28 03:50:22;;;;;;;24.52;16.42;;;;;;;6.24;74.91;99946.94;5052628;28;20167;-77
2023/04/28 03:52:47;;;;;;;25.92;17.80;;;;;;;6.22;75.17;99946.09;5052992;28;20104;-77
2023/04/28 03:55:12;;;;;;;40.45;22.92;;;;;;;6.27;75.03;99954.59;5052767;28;20040;-77
2023/04/28 03:57:38;;;;;;;32.85;19.33;;;;;;;6.21;75.19;99942.66;5052665;28;20041;-77
2023/04/28 04:00:04;;;;;;;29.90;18.10;;;;;;;6.29;75.12;99949.41;5052864;28;20395;-77
2023/04/28 04:02:29;;;;;;;26.30;17.40;;;;;;;6.34;75.08;99942.38;5052651;28;20028;-77
2023/04/28 04:04:54;;;;;;;27.13;17.25;;;;;;;6.59;74.74;99965.91;5052752;28;20451;-77
2023/04/28 04:07:21;;;;;;;29.75;17.13;;;;;;;6.49;74.37;99942.84;5052637;28;20381;-77
2023/04/28 04:09:47;;;;;;;22.20;16.15;;;;;;;6.63;73.87;99939.06;5052486;28;20110;-77
2023/04/28 04:12:12;;;;;;;23.23;15.15;;;;;;;6.78;73.88;99945.56;5051205;28;20075;-77
2023/04/28 04:14:37;;;;;;;26.77;16.95;;;;;;;7.05;73.08;99959.53;5052512;28;20033;-77
2023/04/28 04:17:03;;;;;;;37.60;22.20;;;;;;;7.07;72.67;99943.03;5052651;28;20412;-77
2023/04/28 04:19:28;;;;;;;63.63;29.65;;;;;;;7.43;72.34;99963.63;5052282;28;20443;-77
2023/04/28 04:21:53;;;;;;;44.90;24.70;;;;;;;7.45;71.13;99917.78;5052676;28;20031;-77
2023/04/28 04:24:19;;;;;;;25.80;16.23;;;;;;;7.81;70.67;99967.69;5052125;28;20025;-77
2023/04/28 04:26:44;;;;;;;28.13;17.20;;;;;;;7.78;70.96;99959.16;5051814;28;20172;-77
2023/04/28 04:29:09;;;;;;;26.05;16.60;;;;;;;7.77;70.48;99958.31;5052409;28;20067;-78
2023/04/28 04:31:35;;;;;;;25.17;16.52;;;;;;;7.69;70.63;99950.75;5052260;28;20469;-78
2023/04/28 04:34:00;;;;;;;30.90;18.08;;;;;;;7.63;69.91;99956.13;5052135;28;20044;-78
2023/04/28 04:36:26;;;;;;;27.45;17.33;;;;;;;7.55;70.65;99949.47;5051815;28;20060;-78
2023/04/28 04:38:51;;;;;;;26.25;16.88;;;;;;;7.49;70.66;99929.75;5052122;28;20025;-78
2023/04/28 04:41:21;;;;;;;28.38;17.45;;;;;;;7.45;70.34;99926.41;5050586;28;20040;-78
2023/04/28 04:43:47;;;;;;;31.63;17.85;;;;;;;7.52;70.52;99947.81;5051439;28;20037;-78
2023/04/28 04:46:13;;;;;;;27.08;17.52;;;;;;;7.68;70.70;99953.41;5052137;28;20465;-78
2023/04/28 04:48:38;;;;;;;25.98;16.92;;;;;;;7.61;70.25;99946.69;5051825;28;20377;-78
2023/04/28 04:51:03;;;;;;;32.55;17.35;;;;;;;7.62;70.26;99946.63;5051910;28;20029;-78
2023/04/28 04:53:29;;;;;;;27.38;17.98;;;;;;;7.69;70.44;99940.38;5051777;28;20108;-78
2023/04/28 04:55:54;;;;;;;25.25;18.40;;;;;;;7.63;70.25;99929.38;5051929;28;20067;-78
2023/04/28 04:58:20;;;;;;;26.52;18.08;;;;;;;7.73;70.15;99923.84;5052123;28;20040;-78
2023/04/28 05:00:45;;;;;;;25.55;18.13;;;;;;;7.90;69.93;99928.50;5051618;28;20059;-78
2023/04/28 05:03:11;;;;;;;24.02;17.63;;;;;;;7.89;70.21;99944.97;5051908;28;20107;-78
2023/04/28 05:05:36;;;;;;;29.75;17.00;;;;;;;7.79;70.47;99924.53;5051668;28;20122;-78
2023/04/28 05:08:02;;;;;;;27.55;18.27;;;;;;;7.75;70.75;99911.69;5051721;28;20515;-78
2023/04/28 05:10:27;;;;;;;30.10;18.55;;;;;;;7.88;70.09;99943.28;5051418;28;20021;-78
2023/04/28 05:12:53;;;;;;;28.55;18.90;;;;;;;7.77;69.89;99903.00;5052269;28;20380;-78
2023/04/28 05:15:18;;;;;;;32.08;18.00;;;;;;;7.65;70.25;99892.09;5052025;28;20032;-78
2023/04/28 05:17:44;;;;;;;28.17;17.60;;;;;;;7.76;70.53;99907.34;5051463;28;20461;-78
2023/04/28 05:20:09;;;;;;;30.85;19.17;;;;;;;7.78;70.27;99899.50;5051744;28;20036;-78
2023/04/28 05:22:35;;;;;;;27.65;17.92;;;;;;;7.82;69.92;99903.72;5051445;28;20025;-78
2023/04/28 05:25:00;;;;;;;27.63;18.48;;;;;;;8.01;69.83;99925.59;5051522;28;20028;-78
2023/04/28 05:27:25;;;;;;;29.95;17.73;;;;;;;7.93;69.99;99918.03;5051473;28;20052;-78
2023/04/28 05:29:51;;;;;;;30.77;19.27;;;;;;;8.06;70.00;99921.09;5051675;28;20032;-78
2023/04/28 05:32:16;;;;;;;38.22;21.60;;;;;;;8.10;69.94;99901.09;5051569;28;20108;-78
2023/04/28 05:34:41;;;;;;;30.55;19.90;;;;;;;8.16;69.79;99886.16;5051338;28;20024;-78
2023/04/28 05:37:07;;;;;;;27.05;17.15;;;;;;;8.57;69.17;99933.28;5051549;28;20029;-78
2023/04/28 05:39:32;;;;;;;24.52;16.35;;;;;;;8.58;68.97;99932.38;5051249;28;20031;-78
2023/04/28 05:41:57;;;;;;;24.42;16.23;;;;;;;8.72;68.52;99935.38;5051465;28;20174;-78
2023/04/28 05:44:23;;;;;;;31.90;19.42;;;;;;;8.69;68.25;99906.91;5051538;28;20075;-78
2023/04/28 05:46:49;;;;;;;23.27;16.75;;;;;;;9.37;67.72;99926.09;5051558;28;20039;-79
2023/04/28 05:49:14;;;;;;;24.50;16.77;;;;;;;10.08;65.32;99921.63;5051350;28;20025;-79
2023/04/28 05:51:40;;;;;;;27.85;17.35;;;;;;;10.60;63.50;99922.09;5051033;28;20499;-79
2023/04/28 05:54:05;;;;;;;26.52;17.63;;;;;;;11.03;62.74;99907.22;5051186;28;20025;-79
2023/04/28 05:56:32;;;;;;;24.02;17.13;;;;;;;11.19;61.68;99920.41;5054444;28;20113;-79
2023/04/28 05:58:59;;;;;;;24.88;17.20;;;;;;;11.19;61.70;99889.97;5055076;28;20035;-79
2023/04/28 06:01:25;;;;;;;24.60;15.30;;;;;;;11.22;62.01;99900.28;5055094;28;20143;-79
2023/04/28 06:03:51;;;;;;;28.85;17.10;;;;;;;11.28;62.00;99921.75;5054717;28;20059;-79
2023/04/28 06:06:17;;;;;;;27.33;16.88;;;;;;;11.64;60.98;99893.16;5054993;28;20025;-79
2023/04/28 06:08:42;;;;;;;24.73;16.40;;;;;;;12.46;59.34;99911.78;5054613;28;20017;-79
2023/04/28 06:11:08;;;;;;;25.95;16.35;;;;;;;12.78;58.38;99901.50;5055005;28;20059;-80
2023/04/28 06:13:33;;;;;;;24.55;17.75;;;;;;;13.65;57.90;99902.06;5055046;28;20704;-80
2023/04/28 06:15:58;;;;;;;24.10;15.55;;;;;;;14.05;54.75;99889.38;5054847;28;20117;-80
2023/04/28 06:18:24;;;;;;;21.35;14.18;;;;;;;14.69;53.25;99896.97;5054749;28;20358;-80
2023/04/28 06:20:49;;;;;;;21.02;14.63;;;;;;;15.10;52.21;99888.38;5054416;28;20447;-80
2023/04/28 06:23:15;;;;;;;22.45;15.05;;;;;;;15.93;51.17;99886.66;5054540;28;20021;-80
2023/04/28 06:25:40;;;;;;;22.67;14.52;;;;;;;16.48;49.68;99874.28;5054487;28;20461;-79
2023/04/28 06:28:06;;;;;;;18.58;13.65;;;;;;;16.16;49.50;99877.25;5054578;28;20087;-80
2023/04/28 06:30:33;;;;;;;20.20;12.93;;;;;;;15.54;49.78;99883.91;5054251;28;20476;-80
2023/04/28 06:32:58;;;;;;;21.05;13.80;;;;;;;15.14;51.03;99896.91;5054387;28;20036;-79
2023/04/28 06:35:24;;;;;;;22.15;13.95;;;;;;;15.79;50.33;99891.94;5054432;28;20047;-80
2023/04/28 06:37:49;;;;;;;19.42;12.35;;;;;;;16.64;48.34;99881.94;5054030;28;20025;-80
2023/04/28 06:40:15;;;;;;;19.20;14.35;;;;;;;16.98;47.97;99867.38;5054093;28;20020;-80
2023/04/28 06:42:41;;;;;;;21.85;14.13;;;;;;;17.06;47.05;99870.28;5053986;28;20469;-80
2023/04/28 06:45:07;;;;;;;18.90;13.90;;;;;;;17.15;47.29;99876.69;5054252;28;20029;-80
2023/04/28 06:47:32;;;;;;;20.13;14.10;;;;;;;17.38;47.12;99872.44;5054266;28;20025;-80
2023/04/28 06:49:58;;;;;;;32.47;13.25;;;;;;;17.46;46.21;99870.09;5054085;28;20537;-80
2023/04/28 06:52:23;;;;;;;24.17;13.93;;;;;;;17.40;46.62;99865.25;5054008;28;20464;-80
2023/04/28 06:54:49;;;;;;;18.67;12.77;;;;;;;17.86;45.26;99867.25;5053970;28;20075;-79
2023/04/28 06:57:15;;;;;;;20.08;13.15;;;;;;;18.47;44.82;99873.22;5054116;28;20480;-80
2023/04/28 06:59:42;;;;;;;16.08;11.57;;;;;;;19.91;43.94;99867.19;5053835;28;20064;-80
2023/04/28 07:02:09;;;;;;;14.68;11.63;;;;;;;20.94;40.99;99864.69;5053967;28;20036;-80
2023/04/28 07:04:35;;;;;;;17.58;13.05;;;;;;;22.43;40.39;99865.56;5053650;28;20384;-78
2023/04/28 07:07:00;;;;;;;18.35;14.25;;;;;;;24.24;37.63;99853.47;5052867;28;20033;-78
2023/04/28 07:09:25;;;;;;;17.40;12.02;;;;;;;24.72;35.59;99850.31;5053717;28;20094;-78
2023/04/28 07:11:51;;;;;;;14.52;11.55;;;;;;;26.10;35.04;99867.81;5053664;28;20035;-78
2023/04/28 07:14:16;;;;;;;14.25;10.70;;;;;;;27.76;33.08;99851.00;5053610;28;20566;-78
2023/04/28 07:16:42;;;;;;;18.08;12.23;;;;;;;28.05;32.54;99849.47;5053577;28;20461;-78
2023/04/28 07:19:07;;;;;;;14.20;11.50;;;;;;;27.65;32.78;99845.22;5053664;28;20036;-78
2023/04/28 07:21:33;;;;;;;13.73;10.35;;;;;;;28.54;31.90;99841.88;5053359;28;20017;-78
2023/04/28 07:23:58;;;;;;;16.90;13.23;;;;;;;29.80;31.57;99834.63;5053791;28;20056;-78
2023/04/28 07:26:24;;;;;;;14.32;10.70;;;;;;;30.32;30.16;99857.63;5053610;28;20492;-78
2023/04/28 07:28:50;;;;;;;13.57;11.63;;;;;;;30.07;30.47;99849.97;5053398;28;20029;-78
2023/04/28 07:31:16;;;;;;;11.88;10.07;;;;;;;30.65;29.58;99835.56;5053218;28;20619;-76
2023/04/28 07:33:41;;;;;;;14.65;9.85;;;;;;;30.03;29.46;99840.63;5053127;28;20082;-77
2023/04/28 07:36:06;;;;;;;13.00;10.73;;;;;;;28.58;30.94;99834.31;5053271;28;20029;-79
2023/04/28 07:38:35;;;;;;;11.38;10.25;;;;;;;29.71;30.82;99825.88;5053330;28;20037;-79
2023/04/28 07:41:02;;;;;;;13.10;10.50;;;;;;;30.41;29.50;99831.44;5053189;28;20069;-79
2023/04/28 07:43:28;;;;;;;21.65;11.68;;;;;;;28.78;30.24;99835.44;5053182;28;20029;-79
2023/04/28 07:45:53;;;;;;;15.80;11.55;;;;;;;27.95;30.98;99814.09;5052860;28;20113;-79
2023/04/28 07:48:18;;;;;;;14.02;11.48;;;;;;;27.18;32.15;99822.06;5053021;28;20104;-79
2023/04/28 07:50:44;;;;;;;14.77;12.43;;;;;;;26.96;32.13;99845.84;5052502;28;20060;-79
2023/04/28 07:53:09;;;;;;;16.27;11.45;;;;;;;26.56;32.50;99814.75;5053278;28;20052;-79
2023/04/28 07:55:35;;;;;;;17.65;12.32;;;;;;;25.47;33.27;99823.03;5052611;28;20032;-78
2023/04/28 07:58:00;;;;;;;12.25;10.18;;;;;;;23.68;34.74;99818.19;5052978;28;20079;-79
2023/04/28 08:00:26;;;;;;;12.20;9.75;;;;;;;24.04;34.49;99797.75;5052897;28;20469;-79
2023/04/28 08:02:51;;;;;;;13.90;9.80;;;;;;;24.15;34.09;99810.81;5052601;28;20413;-79
2023/04/28 08:05:17;;;;;;;11.25;9.98;;;;;;;23.74;35.33;99801.66;5052700;28;20036;-79
2023/04/28 08:07:42;;;;;;;13.52;9.32;;;;;;;24.51;34.76;99823.22;5052758;28;20509;-79
2023/04/28 08:10:09;;;;;;;13.13;9.23;;;;;;;23.56;34.75;99804.28;5052898;28;20032;-79
2023/04/28 08:12:34;;;;;;;12.63;9.18;;;;;;;22.86;34.88;99817.22;5047613;28;20064;-80
2023/04/28 08:15:00;;;;;;;12.70;8.98;;;;;;;24.03;34.19;99816.53;5042436;28;20112;-80
2023/04/28 08:17:25;;;;;;;11.15;9.13;;;;;;;22.20;35.97;99814.59;5040746;28;20022;-80
2023/04/28 08:19:51;;;;;;;10.93;9.25;;;;;;;21.47;36.96;99805.38;5041089;28;20127;-79
2023/04/28 08:22:16;;;;;;;16.52;10.20;;;;;;;21.08;37.17;99811.41;5044929;28;20070;-79
2023/04/28 08:24:41;;;;;;;10.85;8.75;;;;;;;20.58;37.40;99805.19;5040522;28;20109;-79
2023/04/28 08:27:07;;;;;;;14.00;9.35;;;;;;;20.04;38.75;99798.28;5043816;28;20037;-79
2023/04/28 08:29:32;;;;;;;11.75;8.48;;;;;;;19.20;39.52;99805.97;5041554;28;20366;-79
2023/04/28 08:31:58;;;;;;;12.57;8.65;;;;;;;18.25;41.14;99805.47;5039469;28;20028;-79
2023/04/28 08:34:23;;;;;;;13.77;8.63;;;;;;;17.51;41.67;99798.69;5041241;28;20025;-80
2023/04/28 08:36:50;;;;;;;12.40;9.52;;;;;;;17.74;42.05;99800.50;5040832;28;20037;-79
2023/04/28 08:39:16;;;;;;;14.02;8.10;;;;;;;17.92;41.40;99804.41;5040023;28;20029;-79
2023/04/28 08:41:41;;;;;;;12.45;7.50;;;;;;;17.67;41.58;99794.81;5041414;28;20032;-79
2023/04/28 08:44:10;;;;;;;11.82;6.80;;;;;;;17.95;41.94;99785.72;5041154;28;20424;-79
2023/04/28 08:46:40;;;;;;;13.13;8.48;;;;;;;18.26;41.80;99790.47;5051868;28;20033;-79
2023/04/28 08:49:11;;;;;;;14.18;8.32;;;;;;;17.84;41.61;99784.84;5051904;28;20083;-79
2023/04/28 08:51:44;;;;;;;13.35;8.27;;;;;;;17.34;42.35;99778.84;5051839;28;20388;-79
2023/04/28 08:54:13;;;;;;;10.93;8.52;;;;;;;16.78;43.03;99750.38;5052078;28;20033;-79
2023/04/28 08:56:44;;;;;;;13.52;8.82;;;;;;;16.89;44.18;99762.75;5051668;28;20028;-79
2023/04/28 08:59:10;;;;;;;13.35;8.45;;;;;;;16.69;44.20;99782.56;5048332;28;20425;-79
2023/04/28 09:01:35;;;;;;;17.33;9.38;;;;;;;16.50;43.78;99755.84;5051803;28;20029;-78
2023/04/28 09:04:01;;;;;;;11.55;8.00;;;;;;;16.21;44.22;99753.44;5051879;28;20132;-78
2023/04/28 09:06:31;;;;;;;12.15;8.45;;;;;;;15.96;45.20;99765.59;5051941;28;20025;-78
2023/04/28 09:09:20;;;;;;;14.95;9.15;;;;;;;15.80;45.80;99754.44;5036937;28;20030;-78
2023/04/28 09:11:52;;;;;;;16.90;8.02;;;;;;;16.08;45.14;99771.81;5033693;28;20527;-78
2023/04/28 09:14:17;;;;;;;;;;;;;;;15.84;45.14;99769.03;5031851;28;20034;-78
2023/04/28 09:16:42;;;;;;;13.05;8.57;;;;;;;15.73;45.57;99747.06;5031550;28;19935;-78
2023/04/28 09:19:08;;;;;;;9.43;7.55;;;;;;;15.65;45.39;99756.28;5031543;28;20068;-78
2023/04/28 09:21:45;;;;;;;12.00;7.90;;;;;;;15.61;45.47;99738.19;5031724;28;20030;-78
2023/04/28 09:24:24;;;;;;;11.45;7.68;;;;;;;15.52;46.21;99738.81;5036098;28;20025;-78
2023/04/28 09:26:50;;;;;;;10.95;7.68;;;;;;;15.80;46.19;99751.81;5031882;28;20128;-78
2023/04/28 09:29:15;;;;;;;15.98;8.23;;;;;;;15.78;46.10;99747.59;5031380;28;20104;-78
2023/04/28 09:31:42;;;;;;;16.98;8.10;;;;;;;15.47;46.02;99737.31;5034832;28;20125;-78
2023/04/28 09:34:08;;;;;;;14.88;7.80;;;;;;;15.26;46.72;99712.47;5035542;28;20030;-78
2023/04/28 09:36:33;;;;;;;12.40;7.80;;;;;;;15.42;47.14;99717.53;5035437;28;20037;-78
2023/04/28 09:39:00;;;;;;;14.73;9.27;;;;;;;15.76;46.05;99716.22;5040679;28;20028;-79
2023/04/28 09:41:54;;;;;;;12.82;7.57;;;;;;;16.14;46.50;99736.41;5043606;28;20025;-79
2023/04/28 09:44:23;;;;;;;13.63;8.38;;;;;;;16.01;45.42;99717.16;5040715;28;20036;-79
2023/04/28 09:46:48;;;;;;;15.13;8.35;;;;;;;15.84;45.86;99719.13;5039506;28;20064;-79
2023/04/28 09:49:14;;;;;;;12.13;8.15;;;;;;;15.78;46.34;99693.28;5036343;28;20076;-79
2023/04/28 09:51:39;;;;;;;17.23;8.88;;;;;;;15.70;46.41;99727.94;5032557;28;20033;-77
2023/04/28 09:54:05;;;;;;;15.20;9.25;;;;;;;15.42;46.14;99694.78;5032556;28;20590;-78
2023/04/28 09:56:33;;;;;;;9.90;7.93;;;;;;;15.69;46.27;99713.13;5039346;28;20026;-78
2023/04/28 09:59:00;;;;;;;15.48;7.03;;;;;;;15.73;46.88;99711.16;5039315;28;20033;-78
2023/04/28 10:01:52;;;;;;;12.60;8.05;;;;;;;16.09;47.23;99710.44;5040745;28;20052;-79
2023/04/28 10:04:18;;;;;;;13.73;7.63;;;;;;;16.44;46.61;99699.28;4971758;28;20423;-79
2023/04/28 10:06:43;;;;;;;14.10;7.93;;;;;;;16.54;46.89;99678.44;4972409;28;20030;-79
2023/04/28 10:09:11;;;;;;;17.27;8.00;;;;;;;16.74;45.77;99696.31;4972205;28;20062;-79
2023/04/28 10:11:38;;;;;;;11.23;8.35;;;;;;;16.70;46.68;99693.03;4972069;28;20061;-79
2023/04/28 10:14:03;;;;;;;15.23;8.88;;;;;;;16.77;46.16;99689.97;4972133;28;20045;-79
2023/04/28 10:16:30;;;;;;;12.95;8.23;;;;;;;16.88;46.66;99685.63;4972080;28;20042;-80
2023/04/28 10:18:56;;;;;;;12.52;8.25;;;;;;;16.70;46.52;99666.72;4971757;28;20035;-80
2023/04/28 10:21:24;;;;;;;12.82;9.57;;;;;;;16.66;47.06;99674.94;4971988;28;20042;-80
2023/04/28 10:24:02;;;;;;;17.20;8.20;;;;;;;16.77;46.97;99658.41;4971755;28;20502;-80
2023/04/28 10:27:00;;;;;;;10.25;7.85;;;;;;;17.13;46.58;99670.69;4970344;28;20115;-80
2023/04/28 10:29:26;;;;;;;11.27;7.35;;;;;;;17.04;45.77;99659.03;4970674;28;20035;-80
2023/04/28 10:32:16;;;;;;;12.00;7.93;;;;;;;16.78;47.84;99668.84;4973136;28;20078;-80
2023/04/28 10:34:42;;;;;;;12.93;8.82;;;;;;;16.86;46.79;99648.09;4972989;28;20039;-80
2023/04/28 10:37:07;;;;;;;10.82;8.23;;;;;;;17.20;46.68;99659.59;4973254;28;20031;-80
2023/04/28 10:39:32;;;;;;;14.55;7.90;;;;;;;17.33;46.35;99640.28;4973217;28;20026;-80
2023/04/28 10:41:58;;;;;;;11.95;8.20;;;;;;;17.51;46.30;99646.78;5024178;28;20616;-80
2023/04/28 10:44:29;;;;;;;15.00;8.40;;;;;;;17.30;46.09;99646.59;5034206;28;20100;-80
2023/04/28 10:47:02;;;;;;;12.75;8.02;;;;;;;17.19;47.13;99663.19;5033796;28;20025;-80
2023/04/28 10:50:00;;;;;;;10.82;7.28;;;;;;;17.21;45.98;99648.13;5033848;28;20080;-80
2023/04/28 10:52:41;;;;;;;10.73;7.18;;;;;;;17.11;46.69;99646.28;5034085;28;20029;-80
2023/04/28 10:55:38;;;;;;;12.68;8.52;;;;;;;16.96;46.96;99646.44;5034311;28;20029;-80
2023/04/28 10:58:16;;;;;;;14.40;8.20;;;;;;;16.79;48.38;99641.56;5033581;28;20118;-80
2023/04/28 11:00:44;;;;;;;11.25;7.75;;;;;;;16.83;47.89;99619.34;5033605;28;20512;-80
2023/04/28 11:03:58;;;;;;;10.70;6.75;;;;;;;17.33;47.65;99632.38;5034152;28;20052;-80
2023/04/28 11:06:26;;;;;;;12.90;7.78;;;;;;;17.29;46.52;99604.59;5034091;28;20381;-80
2023/04/28 11:08:52;;;;;;;10.77;7.60;;;;;;;17.28;46.31;99614.28;5033740;28;20449;-80
2023/04/28 11:11:20;;;;;;;10.60;7.10;;;;;;;17.35;46.84;99625.19;5033937;28;20032;-80
2023/04/28 11:13:46;;;;;;;11.15;6.00;;;;;;;17.42;47.14;99610.63;5033622;28;20030;-80
2023/04/28 11:16:20;;;;;;;9.43;6.10;;;;;;;17.72;46.42;99610.06;5033725;28;20021;-80
2023/04/28 11:19:02;;;;;;;9.93;6.15;;;;;;;17.96;45.33;99625.81;5032200;28;20102;-77
2023/04/28 11:21:28;;;;;;;;;;;;;;;18.03;45.80;99618.25;5034324;28;20082;-78
2023/04/28 11:23:53;;;;;;;8.95;6.53;;;;;;;18.18;46.30;99623.19;5033656;28;19999;-77